NCAR-RAP Real-Time Weather Data

Output produced by METARs form (26 May 2022  07:02 UTC)
found at http://weather.rap.ucar.edu/surface/
 
KPVD 260651Z 24003KT 10SM CLR 09/07 A3037 RMK AO2 SLP284 T00890067
KPVD 260551Z 23003KT 10SM CLR 09/06 A3038 RMK AO2 SLP286 T00940061 10139 20094 58003
KPVD 260451Z 22005KT 10SM CLR 09/06 A3038 RMK AO2 SLP289 T00940061 401890083
KPVD 260351Z 20004KT 10SM CLR 10/06 A3039 RMK AO2 SLP291 T01000061
KPVD 260251Z 21005KT 10SM CLR 11/06 A3038 RMK AO2 SLP289 T01060056 51002
KPVD 260151Z 21006KT 10SM CLR 12/05 A3038 RMK AO2 SLP289 T01170050
KPVD 260051Z 21007KT 10SM CLR 13/04 A3038 RMK AO2 SLP288 T01280044
KPVD 252351Z 17009KT 10SM CLR 14/06 A3038 RMK AO2 SLP287 T01390056 10189 20139 53001
KPVD 252251Z 16009KT 10SM CLR 16/04 A3036 RMK AO2 SLP282 T01560044
KPVD 252151Z 16012KT 10SM CLR 17/06 A3037 RMK AO2 SLP283 T01670056
KPVD 252051Z 16013G18KT 10SM CLR 17/06 A3037 RMK AO2 SLP286 T01720056 58006
KPVD 251951Z 16014KT 10SM CLR 18/06 A3039 RMK AO2 SLP290 T01780061
KPVD 251851Z 15014KT 10SM CLR 18/07 A3039 RMK AO2 SLP290 T01780067
KPVD 251751Z 16013KT 10SM CLR 18/07 A3039 RMK AO2 SLP292 T01830067 10189 20128 58007
KPVD 251651Z 16012KT 10SM CLR 18/07 A3040 RMK AO2 SLP294 T01830072
KPVD 251551Z 13007KT 10SM CLR 18/07 A3041 RMK AO2 SLP297 T01830067
KPVD 251451Z 19004KT 10SM CLR 17/06 A3041 RMK AO2 SLP299 T01670061 50002
KPVD 251351Z 15006KT 10SM CLR 16/07 A3041 RMK AO2 SLP299 T01560072
KPVD 251251Z 17003KT 10SM CLR 14/07 A3042 RMK AO2 SLP302 T01440067
KPVD 251151Z 00000KT 10SM CLR 13/08 A3041 RMK AO2 SLP297 T01330083 10133 20083 53011
KPVD 251051Z 00000KT 10SM CLR 11/09 A3039 RMK AO2 SLP292 T01110089
KPVD 250951Z 27003KT 10SM CLR 09/07 A3039 RMK AO2 SLP290 T00890072
KPVD 250851Z 30003KT 10SM CLR 09/07 A3037 RMK AO2 SLP286 T00890072 53006
KPVD 250751Z 28003KT 10SM CLR 09/07 A3036 RMK AO2 SLP282 T00940072
KPVD 250651Z 00000KT 10SM CLR 09/07 A3036 RMK AO2 SLP279 T00940072
KPVD 250551Z 28003KT 10SM CLR 10/08 A3035 RMK AO2 SLP279 T01000078 10150 20100 58001
KPVD 250451Z 00000KT 10SM CLR 11/08 A3036 RMK AO2 SLP280 T01110078 402000106
KPVD 250351Z 25003KT 10SM CLR 11/08 A3037 RMK AO2 SLP283 T01110083
KPVD 250251Z 15003KT 10SM CLR 12/06 A3036 RMK AO2 SLP280 T01170061 50012
KPVD 250151Z 13004KT 10SM CLR 12/06 A3036 RMK AO2 SLP281 T01220061
KPVD 250051Z 15006KT 10SM BKN250 14/08 A3034 RMK AO2 SLP275 T01390078
KPVD 242351Z 16008KT 10SM FEW070 BKN250 15/09 A3032 RMK AO2 SLP268 T01500089 10200 20150 53004
KPVD 242251Z COR 16011KT 10SM FEW070 SCT250 17/09 A3031 RMK AO2 SLP263 T01720094
KPVD 242151Z AUTO 16007KT 10SM SCT070 18/08 A3030 RMK AO2 SLP261 T01830083
KPVD 242051Z AUTO 13007KT 10SM OVC060 18/06 A3031 RMK AO2 SLP265 T01830061 55001
KPVD 241951Z 06008KT 10SM SCT055 20/07 A3030 RMK AO2 SLP262 T02000072
KPVD 241851Z VRB04KT 10SM SCT048 BKN250 19/07 A3031 RMK AO2 SLP262 T01940072
KPVD 241751Z 08006KT 10SM CLR 19/07 A3031 RMK AO2 SLP265 T01890067 10194 20139 58012
KPVD 241651Z VRB05KT 10SM CLR 18/06 A3033 RMK AO2 SLP270 T01780061
KPVD 241551Z 08007KT 040V110 10SM FEW130 BKN300 17/06 A3035 RMK AO2 SLP278 T01720061
KPVD 241451Z 06006KT 10SM CLR 16/06 A3035 RMK AO2 SLP278 T01610056 51008
KPVD 241351Z 04010KT 10SM FEW130 BKN300 15/06 A3035 RMK AO2 SLP276 T01500056
KPVD 241251Z 04012KT 10SM CLR 14/06 A3034 RMK AO2 SLP274 T01440056
KPVD 241151Z 04011KT 10SM BKN110 BKN300 14/06 A3033 RMK AO2 SLP270 60000 T01390056 10161 20133 52012
KPVD 241051Z AUTO 05012KT 10SM CLR 13/05 A3032 RMK AO2 SLP266 T01330050
KPVD 240951Z AUTO 04013KT 10SM SCT090 BKN110 13/05 A3030 RMK AO2 SLP261 T01330050
KPVD 240851Z 04012KT 10SM OVC110 14/06 A3029 RMK AO2 RAE0759B24E46 SLP258 P0000 60000 T01390061 53010
KPVD 240751Z 01007KT 10SM -RA FEW085 BKN120 15/06 A3027 RMK AO2 RAB44 SLP249 P0000 T01500056